sensor_id;sensor_type;location;lat;lon;timestamp;P1;durP1;ratioP1;P2;durP2;ratioP2
53674;SDS011;39574;50.534;8.500;2023-06-14T00:01:39;8.9;;;5.3;;
53674;SDS011;39574;50.534;8.500;2023-06-14T00:06:38;9.1;;;5.3;;
53674;SDS011;39574;50.534;8.500;2023-06-14T00:11:38;8.8;;;5.2;;
53674;SDS011;39574;50.534;8.500;2023-06-14T00:16:37;8.7;;;5.1;;
53674;SDS011;39574;50.534;8.500;2023-06-14T00:21:36;9.1;;;5.0;;
53674;SDS011;39574;50.534;8.500;2023-06-14T00:26:35;8.6;;;5.0;;
53674;SDS011;39574;50.534;8.500;2023-06-14T00:31:35;9.1;;;5.1;;
53674;SDS011;39574;50.534;8.500;2023-06-14T00:36:34;8.5;;;5.0;;
53674;SDS011;39574;50.534;8.500;2023-06-14T00:41:33;9.7;;;5.1;;
53674;SDS011;39574;50.534;8.500;2023-06-14T00:46:32;10.4;;;4.9;;
53674;SDS011;39574;50.534;8.500;2023-06-14T00:51:32;9.3;;;4.6;;
53674;SDS011;39574;50.534;8.500;2023-06-14T00:56:31;8.5;;;4.4;;
53674;SDS011;39574;50.534;8.500;2023-06-14T01:01:30;7.7;;;4.0;;
53674;SDS011;39574;50.534;8.500;2023-06-14T01:06:31;7.1;;;3.8;;
53674;SDS011;39574;50.534;8.500;2023-06-14T01:11:31;7.5;;;4.0;;
53674;SDS011;39574;50.534;8.500;2023-06-14T01:16:28;8.4;;;4.0;;
53674;SDS011;39574;50.534;8.500;2023-06-14T01:21:27;8.4;;;4.0;;
53674;SDS011;39574;50.534;8.500;2023-06-14T01:26:27;8.0;;;3.9;;
53674;SDS011;39574;50.534;8.500;2023-06-14T01:31:26;8.2;;;4.0;;
53674;SDS011;39574;50.534;8.500;2023-06-14T01:36:25;8.1;;;4.1;;
53674;SDS011;39574;50.534;8.500;2023-06-14T01:41:25;8.1;;;4.2;;
53674;SDS011;39574;50.534;8.500;2023-06-14T01:46:24;8.3;;;4.2;;
53674;SDS011;39574;50.534;8.500;2023-06-14T01:51:23;7.6;;;4.0;;
53674;SDS011;39574;50.534;8.500;2023-06-14T01:56:23;7.8;;;4.0;;
53674;SDS011;39574;50.534;8.500;2023-06-14T02:01:22;7.8;;;3.9;;
53674;SDS011;39574;50.534;8.500;2023-06-14T02:06:21;8.4;;;4.1;;
53674;SDS011;39574;50.534;8.500;2023-06-14T02:11:21;8.8;;;4.3;;
53674;SDS011;39574;50.534;8.500;2023-06-14T02:16:20;8.7;;;4.6;;
53674;SDS011;39574;50.534;8.500;2023-06-14T02:21:19;8.1;;;4.4;;
53674;SDS011;39574;50.534;8.500;2023-06-14T02:26:18;7.5;;;4.3;;
53674;SDS011;39574;50.534;8.500;2023-06-14T02:31:18;7.6;;;4.4;;
53674;SDS011;39574;50.534;8.500;2023-06-14T02:36:17;8.8;;;4.6;;
53674;SDS011;39574;50.534;8.500;2023-06-14T02:41:16;9.2;;;4.8;;
53674;SDS011;39574;50.534;8.500;2023-06-14T02:46:15;9.4;;;4.8;;
53674;SDS011;39574;50.534;8.500;2023-06-14T02:51:15;9.3;;;4.8;;
53674;SDS011;39574;50.534;8.500;2023-06-14T02:56:14;9.2;;;4.9;;
53674;SDS011;39574;50.534;8.500;2023-06-14T03:01:13;9.3;;;4.9;;
53674;SDS011;39574;50.534;8.500;2023-06-14T03:06:12;9.1;;;4.8;;
53674;SDS011;39574;50.534;8.500;2023-06-14T03:11:11;8.8;;;4.6;;
53674;SDS011;39574;50.534;8.500;2023-06-14T03:16:11;8.5;;;4.7;;
53674;SDS011;39574;50.534;8.500;2023-06-14T03:21:10;9.1;;;4.6;;
53674;SDS011;39574;50.534;8.500;2023-06-14T03:26:09;9.1;;;4.9;;
53674;SDS011;39574;50.534;8.500;2023-06-14T03:31:08;9.1;;;5.0;;
53674;SDS011;39574;50.534;8.500;2023-06-14T03:36:07;8.9;;;5.0;;
53674;SDS011;39574;50.534;8.500;2023-06-14T03:41:07;8.8;;;5.0;;
53674;SDS011;39574;50.534;8.500;2023-06-14T03:46:05;9.3;;;5.0;;
53674;SDS011;39574;50.534;8.500;2023-06-14T03:51:05;9.4;;;4.9;;
53674;SDS011;39574;50.534;8.500;2023-06-14T03:56:04;9.3;;;4.9;;
53674;SDS011;39574;50.534;8.500;2023-06-14T04:01:03;8.7;;;4.9;;
53674;SDS011;39574;50.534;8.500;2023-06-14T04:06:03;8.4;;;4.8;;
53674;SDS011;39574;50.534;8.500;2023-06-14T04:11:01;8.0;;;4.6;;
53674;SDS011;39574;50.534;8.500;2023-06-14T04:16:00;8.5;;;4.6;;
53674;SDS011;39574;50.534;8.500;2023-06-14T04:20:59;10.2;;;4.7;;
53674;SDS011;39574;50.534;8.500;2023-06-14T04:25:59;9.8;;;4.6;;
53674;SDS011;39574;50.534;8.500;2023-06-14T04:30:58;10.0;;;4.7;;
53674;SDS011;39574;50.534;8.500;2023-06-14T04:35:57;9.6;;;4.7;;
53674;SDS011;39574;50.534;8.500;2023-06-14T04:40:56;9.7;;;4.6;;
53674;SDS011;39574;50.534;8.500;2023-06-14T04:45:55;9.1;;;4.5;;
53674;SDS011;39574;50.534;8.500;2023-06-14T04:50:54;9.2;;;4.3;;
53674;SDS011;39574;50.534;8.500;2023-06-14T04:55:53;8.8;;;4.1;;
53674;SDS011;39574;50.534;8.500;2023-06-14T05:00:53;8.7;;;4.1;;
53674;SDS011;39574;50.534;8.500;2023-06-14T05:05:52;9.0;;;4.2;;
53674;SDS011;39574;50.534;8.500;2023-06-14T05:10:51;8.8;;;4.3;;
53674;SDS011;39574;50.534;8.500;2023-06-14T05:15:50;9.3;;;4.3;;
53674;SDS011;39574;50.534;8.500;2023-06-14T05:20:50;8.3;;;4.0;;
53674;SDS011;39574;50.534;8.500;2023-06-14T05:25:49;8.0;;;3.9;;
53674;SDS011;39574;50.534;8.500;2023-06-14T05:30:48;7.7;;;3.8;;
53674;SDS011;39574;50.534;8.500;2023-06-14T05:40:47;7.8;;;3.6;;
53674;SDS011;39574;50.534;8.500;2023-06-14T05:45:46;7.9;;;3.6;;
53674;SDS011;39574;50.534;8.500;2023-06-14T05:50:45;7.6;;;3.5;;
53674;SDS011;39574;50.534;8.500;2023-06-14T05:55:44;8.2;;;3.6;;
53674;SDS011;39574;50.534;8.500;2023-06-14T06:00:44;8.1;;;3.7;;
53674;SDS011;39574;50.534;8.500;2023-06-14T06:05:43;7.7;;;3.6;;
53674;SDS011;39574;50.534;8.500;2023-06-14T06:10:43;7.5;;;3.7;;
53674;SDS011;39574;50.534;8.500;2023-06-14T06:15:42;7.2;;;3.6;;
53674;SDS011;39574;50.534;8.500;2023-06-14T06:20:41;6.8;;;3.6;;
53674;SDS011;39574;50.534;8.500;2023-06-14T06:25:40;7.7;;;3.6;;
53674;SDS011;39574;50.534;8.500;2023-06-14T06:30:40;7.7;;;3.6;;
53674;SDS011;39574;50.534;8.500;2023-06-14T06:35:39;7.9;;;3.7;;
53674;SDS011;39574;50.534;8.500;2023-06-14T06:40:38;7.9;;;3.6;;
53674;SDS011;39574;50.534;8.500;2023-06-14T06:45:38;8.5;;;3.5;;
53674;SDS011;39574;50.534;8.500;2023-06-14T06:50:37;8.6;;;3.5;;
53674;SDS011;39574;50.534;8.500;2023-06-14T06:55:36;7.9;;;3.4;;
53674;SDS011;39574;50.534;8.500;2023-06-14T07:00:36;8.3;;;3.4;;
53674;SDS011;39574;50.534;8.500;2023-06-14T07:05:35;7.8;;;3.4;;
53674;SDS011;39574;50.534;8.500;2023-06-14T07:10:34;7.8;;;3.4;;
53674;SDS011;39574;50.534;8.500;2023-06-14T07:15:34;7.3;;;3.3;;
53674;SDS011;39574;50.534;8.500;2023-06-14T07:20:33;7.4;;;3.2;;
53674;SDS011;39574;50.534;8.500;2023-06-14T07:25:32;7.0;;;3.1;;
53674;SDS011;39574;50.534;8.500;2023-06-14T07:30:32;6.8;;;3.1;;
53674;SDS011;39574;50.534;8.500;2023-06-14T07:35:31;7.1;;;3.0;;
53674;SDS011;39574;50.534;8.500;2023-06-14T07:40:31;7.6;;;3.0;;
53674;SDS011;39574;50.534;8.500;2023-06-14T07:45:30;7.2;;;2.8;;
53674;SDS011;39574;50.534;8.500;2023-06-14T07:50:30;7.5;;;2.7;;
53674;SDS011;39574;50.534;8.500;2023-06-14T07:55:29;8.0;;;2.8;;
53674;SDS011;39574;50.534;8.500;2023-06-14T08:00:28;7.2;;;2.6;;
53674;SDS011;39574;50.534;8.500;2023-06-14T08:05:28;7.2;;;2.5;;
53674;SDS011;39574;50.534;8.500;2023-06-14T08:10:27;7.6;;;2.3;;
53674;SDS011;39574;50.534;8.500;2023-06-14T08:15:27;6.5;;;2.3;;
53674;SDS011;39574;50.534;8.500;2023-06-14T08:20:26;6.5;;;2.4;;
53674;SDS011;39574;50.534;8.500;2023-06-14T08:25:25;6.0;;;2.2;;
53674;SDS011;39574;50.534;8.500;2023-06-14T08:30:25;5.6;;;2.2;;
53674;SDS011;39574;50.534;8.500;2023-06-14T08:35:24;6.1;;;2.3;;
53674;SDS011;39574;50.534;8.500;2023-06-14T08:40:24;5.6;;;2.2;;
53674;SDS011;39574;50.534;8.500;2023-06-14T08:45:24;6.9;;;2.3;;
53674;SDS011;39574;50.534;8.500;2023-06-14T08:50:23;6.8;;;2.3;;
53674;SDS011;39574;50.534;8.500;2023-06-14T08:55:22;6.0;;;2.3;;
53674;SDS011;39574;50.534;8.500;2023-06-14T09:00:22;6.1;;;2.5;;
53674;SDS011;39574;50.534;8.500;2023-06-14T09:05:22;5.9;;;2.4;;
53674;SDS011;39574;50.534;8.500;2023-06-14T09:10:20;5.4;;;2.4;;
53674;SDS011;39574;50.534;8.500;2023-06-14T09:15:20;6.1;;;2.5;;
53674;SDS011;39574;50.534;8.500;2023-06-14T09:20:19;10.5;;;6.3;;
53674;SDS011;39574;50.534;8.500;2023-06-14T09:25:19;11.2;;;7.0;;
53674;SDS011;39574;50.534;8.500;2023-06-14T09:30:19;28.2;;;6.6;;
53674;SDS011;39574;50.534;8.500;2023-06-14T09:35:18;22.3;;;5.2;;
53674;SDS011;39574;50.534;8.500;2023-06-14T09:40:20;15.8;;;3.7;;
53674;SDS011;39574;50.534;8.500;2023-06-14T09:45:17;142.2;;;58.3;;
53674;SDS011;39574;50.534;8.500;2023-06-14T09:50:16;104.2;;;44.3;;
53674;SDS011;39574;50.534;8.500;2023-06-14T09:55:16;71.2;;;30.4;;
53674;SDS011;39574;50.534;8.500;2023-06-14T10:00:15;38.7;;;16.7;;
53674;SDS011;39574;50.534;8.500;2023-06-14T10:05:15;63.4;;;7.5;;
53674;SDS011;39574;50.534;8.500;2023-06-14T10:10:14;49.4;;;6.3;;
53674;SDS011;39574;50.534;8.500;2023-06-14T10:15:15;39.5;;;5.4;;
53674;SDS011;39574;50.534;8.500;2023-06-14T10:20:17;23.8;;;4.0;;
53674;SDS011;39574;50.534;8.500;2023-06-14T10:25:13;9.4;;;2.7;;
53674;SDS011;39574;50.534;8.500;2023-06-14T10:30:14;7.8;;;2.6;;
53674;SDS011;39574;50.534;8.500;2023-06-14T10:35:15;6.3;;;2.5;;
53674;SDS011;39574;50.534;8.500;2023-06-14T10:40:14;6.6;;;2.4;;
53674;SDS011;39574;50.534;8.500;2023-06-14T10:45:12;6.7;;;2.4;;
53674;SDS011;39574;50.534;8.500;2023-06-14T10:50:11;6.9;;;2.4;;
53674;SDS011;39574;50.534;8.500;2023-06-14T10:55:11;7.1;;;2.4;;
53674;SDS011;39574;50.534;8.500;2023-06-14T11:00:11;6.4;;;2.3;;
53674;SDS011;39574;50.534;8.500;2023-06-14T11:05:10;6.4;;;2.3;;
53674;SDS011;39574;50.534;8.500;2023-06-14T11:10:10;6.1;;;2.3;;
53674;SDS011;39574;50.534;8.500;2023-06-14T11:15:09;5.6;;;2.3;;
53674;SDS011;39574;50.534;8.500;2023-06-14T11:20:08;5.8;;;2.3;;
53674;SDS011;39574;50.534;8.500;2023-06-14T11:25:08;6.7;;;2.5;;
53674;SDS011;39574;50.534;8.500;2023-06-14T11:30:07;7.0;;;2.6;;
53674;SDS011;39574;50.534;8.500;2023-06-14T11:40:07;7.1;;;2.5;;
53674;SDS011;39574;50.534;8.500;2023-06-14T11:45:07;6.6;;;2.4;;
53674;SDS011;39574;50.534;8.500;2023-06-14T11:50:06;6.0;;;2.4;;
53674;SDS011;39574;50.534;8.500;2023-06-14T11:55:05;6.2;;;2.4;;
53674;SDS011;39574;50.534;8.500;2023-06-14T12:00:06;6.5;;;2.5;;
53674;SDS011;39574;50.534;8.500;2023-06-14T12:05:05;6.3;;;2.5;;
53674;SDS011;39574;50.534;8.500;2023-06-14T12:10:04;6.1;;;2.5;;
53674;SDS011;39574;50.534;8.500;2023-06-14T12:15:04;5.9;;;2.6;;
53674;SDS011;39574;50.534;8.500;2023-06-14T12:20:05;5.8;;;2.6;;
53674;SDS011;39574;50.534;8.500;2023-06-14T12:25:05;5.4;;;2.7;;
53674;SDS011;39574;50.534;8.500;2023-06-14T12:30:03;5.8;;;2.7;;
53674;SDS011;39574;50.534;8.500;2023-06-14T12:35:05;6.9;;;2.7;;
53674;SDS011;39574;50.534;8.500;2023-06-14T12:40:02;6.5;;;2.6;;
53674;SDS011;39574;50.534;8.500;2023-06-14T12:45:01;6.4;;;2.6;;
53674;SDS011;39574;50.534;8.500;2023-06-14T12:50:01;6.3;;;2.6;;
53674;SDS011;39574;50.534;8.500;2023-06-14T12:55:01;5.6;;;2.5;;
53674;SDS011;39574;50.534;8.500;2023-06-14T13:00:00;5.6;;;2.5;;
53674;SDS011;39574;50.534;8.500;2023-06-14T13:05:00;5.5;;;2.6;;
53674;SDS011;39574;50.534;8.500;2023-06-14T13:10:00;5.3;;;2.6;;
53674;SDS011;39574;50.534;8.500;2023-06-14T13:14:59;5.2;;;2.5;;
53674;SDS011;39574;50.534;8.500;2023-06-14T13:19:59;10.1;;;2.6;;
53674;SDS011;39574;50.534;8.500;2023-06-14T13:24:58;9.0;;;2.6;;
53674;SDS011;39574;50.534;8.500;2023-06-14T13:29:58;7.9;;;2.6;;
53674;SDS011;39574;50.534;8.500;2023-06-14T13:34:58;6.3;;;2.5;;
53674;SDS011;39574;50.534;8.500;2023-06-14T13:39:57;5.2;;;2.6;;
53674;SDS011;39574;50.534;8.500;2023-06-14T13:44:57;5.8;;;2.5;;
53674;SDS011;39574;50.534;8.500;2023-06-14T13:49:57;5.7;;;2.5;;
53674;SDS011;39574;50.534;8.500;2023-06-14T13:54:56;5.9;;;2.6;;
53674;SDS011;39574;50.534;8.500;2023-06-14T13:59:56;5.9;;;2.6;;
53674;SDS011;39574;50.534;8.500;2023-06-14T14:04:56;6.4;;;2.6;;
53674;SDS011;39574;50.534;8.500;2023-06-14T14:09:56;15.5;;;3.2;;
53674;SDS011;39574;50.534;8.500;2023-06-14T14:14:56;13.3;;;2.9;;
53674;SDS011;39574;50.534;8.500;2023-06-14T14:19:55;10.5;;;2.8;;
53674;SDS011;39574;50.534;8.500;2023-06-14T14:24:55;9.4;;;2.8;;
53674;SDS011;39574;50.534;8.500;2023-06-14T14:29:55;6.6;;;2.6;;
53674;SDS011;39574;50.534;8.500;2023-06-14T14:34:55;6.1;;;2.5;;
53674;SDS011;39574;50.534;8.500;2023-06-14T14:39:54;6.3;;;2.6;;
53674;SDS011;39574;50.534;8.500;2023-06-14T14:44:54;6.1;;;2.7;;
53674;SDS011;39574;50.534;8.500;2023-06-14T14:49:53;6.2;;;2.7;;
53674;SDS011;39574;50.534;8.500;2023-06-14T14:54:53;5.9;;;2.6;;
53674;SDS011;39574;50.534;8.500;2023-06-14T14:59:53;6.4;;;2.7;;
53674;SDS011;39574;50.534;8.500;2023-06-14T15:04:52;7.1;;;2.8;;
53674;SDS011;39574;50.534;8.500;2023-06-14T15:09:52;6.3;;;2.7;;
53674;SDS011;39574;50.534;8.500;2023-06-14T15:14:52;6.3;;;2.6;;
53674;SDS011;39574;50.534;8.500;2023-06-14T15:19:52;6.8;;;2.6;;
53674;SDS011;39574;50.534;8.500;2023-06-14T15:24:52;7.0;;;2.7;;
53674;SDS011;39574;50.534;8.500;2023-06-14T15:29:51;6.7;;;2.8;;
53674;SDS011;39574;50.534;8.500;2023-06-14T15:34:50;6.1;;;2.8;;
53674;SDS011;39574;50.534;8.500;2023-06-14T15:39:50;5.5;;;2.6;;
53674;SDS011;39574;50.534;8.500;2023-06-14T15:44:50;5.4;;;2.6;;
53674;SDS011;39574;50.534;8.500;2023-06-14T15:59:49;6.0;;;2.7;;
53674;SDS011;39574;50.534;8.500;2023-06-14T16:04:48;5.7;;;2.7;;
53674;SDS011;39574;50.534;8.500;2023-06-14T16:09:48;5.4;;;2.6;;
53674;SDS011;39574;50.534;8.500;2023-06-14T16:14:48;5.1;;;2.6;;
53674;SDS011;39574;50.534;8.500;2023-06-14T16:19:47;5.8;;;2.7;;
53674;SDS011;39574;50.534;8.500;2023-06-14T16:24:47;6.3;;;2.6;;
53674;SDS011;39574;50.534;8.500;2023-06-14T16:29:47;9.9;;;2.7;;
53674;SDS011;39574;50.534;8.500;2023-06-14T16:34:46;9.3;;;2.8;;
53674;SDS011;39574;50.534;8.500;2023-06-14T16:39:46;8.1;;;2.8;;
53674;SDS011;39574;50.534;8.500;2023-06-14T16:44:46;6.7;;;2.6;;
53674;SDS011;39574;50.534;8.500;2023-06-14T16:49:45;6.4;;;2.6;;
53674;SDS011;39574;50.534;8.500;2023-06-14T16:54:45;6.4;;;2.7;;
53674;SDS011;39574;50.534;8.500;2023-06-14T16:59:45;6.0;;;2.7;;
53674;SDS011;39574;50.534;8.500;2023-06-14T17:04:44;6.6;;;2.7;;
53674;SDS011;39574;50.534;8.500;2023-06-14T17:09:45;6.7;;;2.9;;
53674;SDS011;39574;50.534;8.500;2023-06-14T17:14:44;6.2;;;2.8;;
53674;SDS011;39574;50.534;8.500;2023-06-14T17:19:43;5.9;;;2.7;;
53674;SDS011;39574;50.534;8.500;2023-06-14T17:24:43;5.5;;;2.6;;
53674;SDS011;39574;50.534;8.500;2023-06-14T17:29:43;5.5;;;2.7;;
53674;SDS011;39574;50.534;8.500;2023-06-14T17:34:42;6.2;;;2.7;;
53674;SDS011;39574;50.534;8.500;2023-06-14T17:39:42;6.5;;;2.7;;
53674;SDS011;39574;50.534;8.500;2023-06-14T17:44:42;6.6;;;2.7;;
53674;SDS011;39574;50.534;8.500;2023-06-14T17:49:41;5.9;;;2.7;;
53674;SDS011;39574;50.534;8.500;2023-06-14T17:54:41;5.6;;;2.7;;
53674;SDS011;39574;50.534;8.500;2023-06-14T18:04:40;5.9;;;2.6;;
53674;SDS011;39574;50.534;8.500;2023-06-14T18:09:40;5.6;;;2.5;;
53674;SDS011;39574;50.534;8.500;2023-06-14T18:14:39;6.1;;;2.7;;
53674;SDS011;39574;50.534;8.500;2023-06-14T18:19:39;6.3;;;2.7;;
53674;SDS011;39574;50.534;8.500;2023-06-14T18:24:39;6.4;;;2.7;;
53674;SDS011;39574;50.534;8.500;2023-06-14T18:29:38;6.6;;;2.6;;
53674;SDS011;39574;50.534;8.500;2023-06-14T18:34:38;6.2;;;2.6;;
53674;SDS011;39574;50.534;8.500;2023-06-14T18:39:38;5.7;;;2.6;;
53674;SDS011;39574;50.534;8.500;2023-06-14T18:44:37;6.0;;;2.6;;
53674;SDS011;39574;50.534;8.500;2023-06-14T18:49:37;6.5;;;2.9;;
53674;SDS011;39574;50.534;8.500;2023-06-14T18:54:36;6.2;;;2.9;;
53674;SDS011;39574;50.534;8.500;2023-06-14T18:59:36;5.9;;;2.7;;
53674;SDS011;39574;50.534;8.500;2023-06-14T19:04:35;6.0;;;2.7;;
53674;SDS011;39574;50.534;8.500;2023-06-14T19:09:35;6.3;;;2.8;;
53674;SDS011;39574;50.534;8.500;2023-06-14T19:14:34;6.3;;;3.1;;
53674;SDS011;39574;50.534;8.500;2023-06-14T19:19:34;6.4;;;3.2;;
53674;SDS011;39574;50.534;8.500;2023-06-14T19:24:33;6.5;;;2.8;;
53674;SDS011;39574;50.534;8.500;2023-06-14T19:29:33;6.0;;;2.5;;
53674;SDS011;39574;50.534;8.500;2023-06-14T19:34:32;5.8;;;2.4;;
53674;SDS011;39574;50.534;8.500;2023-06-14T19:39:32;5.3;;;2.3;;
53674;SDS011;39574;50.534;8.500;2023-06-14T19:44:31;4.9;;;2.3;;
53674;SDS011;39574;50.534;8.500;2023-06-14T19:49:31;5.4;;;2.3;;
53674;SDS011;39574;50.534;8.500;2023-06-14T19:54:30;5.5;;;2.3;;
53674;SDS011;39574;50.534;8.500;2023-06-14T19:59:30;5.5;;;2.3;;
53674;SDS011;39574;50.534;8.500;2023-06-14T20:04:29;5.1;;;2.3;;
53674;SDS011;39574;50.534;8.500;2023-06-14T20:09:28;5.3;;;2.4;;
53674;SDS011;39574;50.534;8.500;2023-06-14T20:14:28;5.2;;;2.5;;
53674;SDS011;39574;50.534;8.500;2023-06-14T20:19:28;5.0;;;2.4;;
53674;SDS011;39574;50.534;8.500;2023-06-14T20:24:27;5.2;;;2.5;;
53674;SDS011;39574;50.534;8.500;2023-06-14T20:29:26;4.8;;;2.3;;
53674;SDS011;39574;50.534;8.500;2023-06-14T20:34:26;5.0;;;2.3;;
53674;SDS011;39574;50.534;8.500;2023-06-14T20:39:25;5.3;;;2.2;;
53674;SDS011;39574;50.534;8.500;2023-06-14T20:44:25;5.5;;;2.3;;
53674;SDS011;39574;50.534;8.500;2023-06-14T20:49:24;5.2;;;2.2;;
53674;SDS011;39574;50.534;8.500;2023-06-14T20:54:24;4.8;;;2.2;;
53674;SDS011;39574;50.534;8.500;2023-06-14T20:59:23;4.9;;;2.3;;
53674;SDS011;39574;50.534;8.500;2023-06-14T21:04:23;4.8;;;2.2;;
53674;SDS011;39574;50.534;8.500;2023-06-14T21:09:22;5.1;;;2.2;;
53674;SDS011;39574;50.534;8.500;2023-06-14T21:14:21;5.1;;;2.2;;
53674;SDS011;39574;50.534;8.500;2023-06-14T21:19:21;4.8;;;2.2;;
53674;SDS011;39574;50.534;8.500;2023-06-14T21:24:20;4.9;;;2.2;;
53674;SDS011;39574;50.534;8.500;2023-06-14T21:29:20;5.2;;;2.0;;
53674;SDS011;39574;50.534;8.500;2023-06-14T21:34:19;5.2;;;2.1;;
53674;SDS011;39574;50.534;8.500;2023-06-14T21:39:19;5.2;;;2.2;;
53674;SDS011;39574;50.534;8.500;2023-06-14T21:44:19;4.9;;;2.2;;
53674;SDS011;39574;50.534;8.500;2023-06-14T21:49:17;4.9;;;2.3;;
53674;SDS011;39574;50.534;8.500;2023-06-14T21:54:17;5.0;;;2.4;;
53674;SDS011;39574;50.534;8.500;2023-06-14T21:59:16;5.3;;;2.4;;
53674;SDS011;39574;50.534;8.500;2023-06-14T22:04:15;5.2;;;2.4;;
53674;SDS011;39574;50.534;8.500;2023-06-14T22:09:15;5.1;;;2.5;;
53674;SDS011;39574;50.534;8.500;2023-06-14T22:14:14;5.2;;;2.5;;
53674;SDS011;39574;50.534;8.500;2023-06-14T22:19:14;5.2;;;2.5;;
53674;SDS011;39574;50.534;8.500;2023-06-14T22:24:13;5.2;;;2.6;;
53674;SDS011;39574;50.534;8.500;2023-06-14T22:29:13;5.4;;;2.5;;
53674;SDS011;39574;50.534;8.500;2023-06-14T22:34:12;5.5;;;2.6;;
53674;SDS011;39574;50.534;8.500;2023-06-14T22:39:11;5.3;;;2.5;;
53674;SDS011;39574;50.534;8.500;2023-06-14T22:44:10;6.0;;;2.5;;
53674;SDS011;39574;50.534;8.500;2023-06-14T22:49:10;6.2;;;2.7;;
53674;SDS011;39574;50.534;8.500;2023-06-14T22:54:09;5.9;;;2.7;;
53674;SDS011;39574;50.534;8.500;2023-06-14T22:59:08;5.5;;;2.6;;
53674;SDS011;39574;50.534;8.500;2023-06-14T23:04:08;5.4;;;2.8;;
53674;SDS011;39574;50.534;8.500;2023-06-14T23:09:07;5.2;;;2.8;;
53674;SDS011;39574;50.534;8.500;2023-06-14T23:14:07;5.9;;;2.8;;
53674;SDS011;39574;50.534;8.500;2023-06-14T23:19:06;6.4;;;2.8;;
53674;SDS011;39574;50.534;8.500;2023-06-14T23:24:05;6.2;;;2.8;;
53674;SDS011;39574;50.534;8.500;2023-06-14T23:29:04;6.2;;;2.7;;
53674;SDS011;39574;50.534;8.500;2023-06-14T23:34:04;6.1;;;2.8;;
53674;SDS011;39574;50.534;8.500;2023-06-14T23:39:03;6.3;;;2.8;;
53674;SDS011;39574;50.534;8.500;2023-06-14T23:44:02;6.2;;;2.8;;
53674;SDS011;39574;50.534;8.500;2023-06-14T23:49:01;6.1;;;2.7;;
53674;SDS011;39574;50.534;8.500;2023-06-14T23:54:01;6.0;;;2.7;;
53674;SDS011;39574;50.534;8.500;2023-06-14T23:59:00;6.0;;;2.9;;
